< Cyclone 201201 2012 Season Cyclone 201204 >
Cyclone 201202 (unnamed)
General InformationTrack Information on Google MapsList of All Images || ResourceGoogle EarthGE AnimationAtom FeedGeoJSON
Detalied Best Track (Time Zone = UTC)
Year Month Day Hour Lat. Long. Pressure (hPa) Wind (kt) Class Image Chart
2011 12 18 00 -11.9 157.0 1005 20 2 Image --
2011 12 18 12 -12.9 157.0 1005 20 2 Image --
2011 12 19 00 -13.1 154.8 1003 20 2 Image --
2011 12 19 06 -13.5 156.0 1003 20 2 Image --
2011 12 19 12 -13.9 155.1 1003 20 2 Image --
2011 12 19 18 -13.8 156.4 1003 20 2 Image --
2011 12 20 00 -13.8 155.5 1003 20 2 Image --
2011 12 20 06 -13.8 155.5 1002 20 2 Image --
2011 12 20 12 -13.6 155.2 1004 25 2 Image --
2011 12 20 18 -14.2 155.9 1000 25 2 Image --
2011 12 21 00 -15.2 156.6 1000 30 2 Image --
2011 12 21 06 -16.2 157.0 998 30 2 Image --
2011 12 21 12 -16.9 157.0 998 30 2 Image --
2011 12 21 15 -17.4 157.2 996 30 2 Image --
2011 12 21 18 -17.8 156.7 994 30 2 Image --
2011 12 21 21 -18.0 156.2 994 30 2 Image --
2011 12 22 00 -18.4 156.0 996 30 2 Image --
2011 12 22 01 -18.8 155.8 998 30 2 Image --
2011 12 22 06 -19.0 155.7 998 30 2 Image --
2011 12 22 12 -19.4 154.5 1000 30 2 Image --
2011 12 22 20 -20.3 155.0 998 30 2 Image --
2011 12 23 00 -21.0 155.3 998 0 0 Image --
2011 12 23 02 -21.4 155.5 998 0 0 Image --
2011 12 23 05 -21.9 155.8 998 0 0 Image --
2011 12 23 06 -21.9 156.0 998 0 0 Image --
2011 12 23 12 -21.9 156.0 998 0 0 Image --
2011 12 23 18 -21.8 156.1 998 0 0 Image --
2011 12 24 00 -21.7 156.4 998 0 0 Image --
2011 12 24 02 -21.8 157.2 998 0 0 Image --
2011 12 24 05 -22.1 157.5 998 0 0 Image --
2011 12 24 09 -23.9 157.9 998 0 0 Image --
2011 12 24 11 -23.6 157.4 998 0 0 Image --
2011 12 24 12 -23.7 157.5 998 0 0 Image --
2011 12 24 18 -24.1 158.1 998 0 0 Image --
2011 12 24 23 -24.4 158.5 998 0 0 Image --
2011 12 25 02 -24.5 158.9 998 0 0 Image --
2011 12 25 05 -24.5 159.1 998 0 0 Image --
2011 12 25 06 -24.6 159.2 998 0 0 Image --
2011 12 25 09 -24.8 159.4 998 0 0 Image --
2011 12 25 12 -25.7 159.8 998 0 0 Image --
2011 12 25 18 -25.7 160.6 998 0 0 Image --
2011 12 26 00 -26.2 161.5 998 0 0 Image --
2011 12 26 06 -26.4 162.3 998 0 0 Image --
< Cyclone 201201 2012 Season Cyclone 201204 >

Help